Station History

Weather Underground - logo

Station Historical Data
Daily Summary for March 6, 2018 Units:  Both    English   Metric
« Previous Day
Next Day »
Daily Weekly Monthly Yearly Custom
  High: Low: Average:
Temperature: 69.1 °F /  20.6 °C 36.3 °F /  2.4 °C 52.5 °F /  11.4 °C
Dew Point: 46.3 °F /  7.9 °C 34.2 °F /  1.2 °C 40.7 °F /  4.8 °C
Humidity: 95 % 30 % 69 %
Wind Speed: 5.8 mph /  9.3 km/h - 1.2 mph /  1.9 km/h
Wind Gust: 5.8 mph /  9.3 km/h - -
Wind:- - WSW
Pressure: 30.20 in /  1022.6 hPa 30.04 in /  1017.2 hPa -
Precipitation: 0.00 in /  0 mm    
Historical Graphs
 
 
Tabular Data for March 6, 2018
Time Temperature Dew Point Pressure Wind Wind Speed Wind Gust Humidity Rainfall Rate (Hourly)
00:03 41.9 °F /  5.5 °C 39.2 °F /  4 °C 30.18 in /  1021.9 hPa Calm     90 % 0.00 in /  0 mm
00:09 42.0 °F /  5.6 °C 39.3 °F /  4.1 °C 30.18 in /  1021.9 hPa Calm     90 % 0.00 in /  0 mm
00:14 41.9 °F /  5.5 °C 39.2 °F /  4 °C 30.18 in /  1021.9 hPa Calm     90 % 0.00 in /  0 mm
00:19 42.0 °F /  5.6 °C 39.3 °F /  4.1 °C 30.18 in /  1021.9 hPa Calm     90 % 0.00 in /  0 mm
00:24 42.0 °F /  5.6 °C 39.3 °F /  4.1 °C 30.18 in /  1021.9 hPa Calm     90 % 0.00 in /  0 mm
00:29 41.8 °F /  5.4 °C 39.1 °F /  3.9 °C 30.18 in /  1021.9 hPa Calm     90 % 0.00 in /  0 mm
00:34 41.6 °F /  5.3 °C 38.6 °F /  3.7 °C 30.19 in /  1022.2 hPa Calm     89 % 0.00 in /  0 mm
00:39 41.2 °F /  5.1 °C 38.2 °F /  3.4 °C 30.19 in /  1022.2 hPa Calm     89 % 0.00 in /  0 mm
00:44 40.8 °F /  4.9 °C 37.8 °F /  3.2 °C 30.19 in /  1022.2 hPa Calm     89 % 0.00 in /  0 mm
00:49 40.8 °F /  4.9 °C 38.1 °F /  3.4 °C 30.19 in /  1022.2 hPa Calm     90 % 0.00 in /  0 mm
00:54 40.7 °F /  4.8 °C 38.0 °F /  3.3 °C 30.19 in /  1022.2 hPa Calm     90 % 0.00 in /  0 mm
00:59 40.7 °F /  4.8 °C 38.3 °F /  3.5 °C 30.20 in /  1022.6 hPa Calm     91 % 0.00 in /  0 mm
01:04 40.8 °F /  4.9 °C 38.4 °F /  3.6 °C 30.20 in /  1022.6 hPa Calm     91 % 0.00 in /  0 mm
01:09 40.9 °F /  4.9 °C 38.5 °F /  3.6 °C 30.19 in /  1022.2 hPa Calm     91 % 0.00 in /  0 mm
01:14 40.9 °F /  4.9 °C 38.5 °F /  3.6 °C 30.20 in /  1022.6 hPa Calm     91 % 0.00 in /  0 mm
01:19 40.9 °F /  4.9 °C 38.5 °F /  3.6 °C 30.20 in /  1022.6 hPa Calm     91 % 0.00 in /  0 mm
01:24 41.0 °F /  5 °C 38.6 °F /  3.7 °C 30.20 in /  1022.6 hPa Calm     91 % 0.00 in /  0 mm
01:29 41.0 °F /  5 °C 38.6 °F /  3.7 °C 30.19 in /  1022.2 hPa Calm     91 % 0.00 in /  0 mm
01:34 40.5 °F /  4.7 °C 37.8 °F /  3.2 °C 30.19 in /  1022.2 hPa Calm     90 % 0.00 in /  0 mm
01:39 40.2 °F /  4.6 °C 37.5 °F /  3.1 °C 30.19 in /  1022.2 hPa Calm     90 % 0.00 in /  0 mm
01:44 40.3 °F /  4.6 °C 38.2 °F /  3.4 °C 30.19 in /  1022.2 hPa North 1.2 mph /  1.9 km/h   92 % 0.00 in /  0 mm
01:49 40.7 °F /  4.8 °C 38.6 °F /  3.7 °C 30.19 in /  1022.2 hPa Calm     92 % 0.00 in /  0 mm
01:54 41.0 °F /  5 °C 38.9 °F /  3.8 °C 30.19 in /  1022.2 hPa Calm     92 % 0.00 in /  0 mm
01:59 41.1 °F /  5.1 °C 38.7 °F /  3.7 °C 30.19 in /  1022.2 hPa Calm     91 % 0.00 in /  0 mm
02:04 41.1 °F /  5.1 °C 38.7 °F /  3.7 °C 30.19 in /  1022.2 hPa Calm     91 % 0.00 in /  0 mm
02:09 41.1 °F /  5.1 °C 38.7 °F /  3.7 °C 30.18 in /  1021.9 hPa Calm     91 % 0.00 in /  0 mm
02:14 41.1 °F /  5.1 °C 38.7 °F /  3.7 °C 30.18 in /  1021.9 hPa Calm     91 % 0.00 in /  0 mm
02:19 41.1 °F /  5.1 °C 38.7 °F /  3.7 °C 30.18 in /  1021.9 hPa Calm     91 % 0.00 in /  0 mm
02:24 40.7 °F /  4.8 °C 38.0 °F /  3.3 °C 30.18 in /  1021.9 hPa Calm     90 % 0.00 in /  0 mm
02:29 40.2 °F /  4.6 °C 37.5 °F /  3.1 °C 30.18 in /  1021.9 hPa Calm     90 % 0.00 in /  0 mm
02:34 39.6 °F /  4.2 °C 36.9 °F /  2.7 °C 30.18 in /  1021.9 hPa Calm     90 % 0.00 in /  0 mm
02:39 39.2 °F /  4 °C 36.8 °F /  2.7 °C 30.17 in /  1021.6 hPa Calm     91 % 0.00 in /  0 mm
02:44 39.2 °F /  4 °C 37.1 °F /  2.8 °C 30.17 in /  1021.6 hPa Calm     92 % 0.00 in /  0 mm
02:49 39.4 °F /  4.1 °C 37.3 °F /  2.9 °C 30.17 in /  1021.6 hPa Calm     92 % 0.00 in /  0 mm
02:55 39.6 °F /  4.2 °C 37.5 °F /  3.1 °C 30.17 in /  1021.6 hPa Calm     92 % 0.00 in /  0 mm
03:00 39.7 °F /  4.3 °C 37.6 °F /  3.1 °C 30.17 in /  1021.6 hPa Calm     92 % 0.00 in /  0 mm
03:05 39.6 °F /  4.2 °C 37.5 °F /  3.1 °C 30.17 in /  1021.6 hPa Calm     92 % 0.00 in /  0 mm
03:10 39.4 °F /  4.1 °C 37.0 °F /  2.8 °C 30.17 in /  1021.6 hPa Calm     91 % 0.00 in /  0 mm
03:15 39.0 °F /  3.9 °C 36.3 °F /  2.4 °C 30.16 in /  1021.2 hPa Calm     90 % 0.00 in /  0 mm
03:20 38.6 °F /  3.7 °C 36.2 °F /  2.3 °C 30.16 in /  1021.2 hPa Calm     91 % 0.00 in /  0 mm
03:25 38.3 °F /  3.5 °C 35.9 °F /  2.2 °C 30.16 in /  1021.2 hPa Calm     91 % 0.00 in /  0 mm
03:30 38.1 °F /  3.4 °C 35.7 °F /  2.1 °C 30.16 in /  1021.2 hPa Calm     91 % 0.00 in /  0 mm
03:35 37.8 °F /  3.2 °C 35.4 °F /  1.9 °C 30.16 in /  1021.2 hPa Calm     91 % 0.00 in /  0 mm
03:40 37.6 °F /  3.1 °C 35.2 °F /  1.8 °C 30.16 in /  1021.2 hPa Calm     91 % 0.00 in /  0 mm
03:45 37.4 °F /  3 °C 35.0 °F /  1.7 °C 30.16 in /  1021.2 hPa North 1.2 mph /  1.9 km/h 1.2 mph /  1.9 km/h 91 % 0.00 in /  0 mm
03:50 37.0 °F /  2.8 °C 34.6 °F /  1.4 °C 30.16 in /  1021.2 hPa Calm     91 % 0.00 in /  0 mm
03:55 36.8 °F /  2.7 °C 34.4 °F /  1.3 °C 30.16 in /  1021.2 hPa Calm     91 % 0.00 in /  0 mm
04:00 36.7 °F /  2.6 °C 34.6 °F /  1.4 °C 30.16 in /  1021.2 hPa Calm     92 % 0.00 in /  0 mm
04:05 36.5 °F /  2.5 °C 34.4 °F /  1.3 °C 30.16 in /  1021.2 hPa Calm     92 % 0.00 in /  0 mm
04:10 36.3 °F /  2.4 °C 34.2 °F /  1.2 °C 30.16 in /  1021.2 hPa Calm     92 % 0.00 in /  0 mm
04:15 36.4 °F /  2.4 °C 34.6 °F /  1.4 °C 30.16 in /  1021.2 hPa Calm     93 % 0.00 in /  0 mm
04:20 36.7 °F /  2.6 °C 34.9 °F /  1.6 °C 30.16 in /  1021.2 hPa Calm     93 % 0.00 in /  0 mm
04:25 36.9 °F /  2.7 °C 35.1 °F /  1.7 °C 30.16 in /  1021.2 hPa Calm     93 % 0.00 in /  0 mm
04:30 37.1 °F /  2.8 °C 35.3 °F /  1.8 °C 30.16 in /  1021.2 hPa Calm     93 % 0.00 in /  0 mm
04:35 37.2 °F /  2.9 °C 35.4 °F /  1.9 °C 30.16 in /  1021.2 hPa Calm     93 % 0.00 in /  0 mm
04:40 37.4 °F /  3 °C 35.6 °F /  2 °C 30.16 in /  1021.2 hPa Calm     93 % 0.00 in /  0 mm
04:45 37.3 °F /  2.9 °C 35.5 °F /  1.9 °C 30.17 in /  1021.6 hPa Calm     93 % 0.00 in /  0 mm
04:50 37.1 °F /  2.8 °C 35.3 °F /  1.8 °C 30.17 in /  1021.6 hPa Calm     93 % 0.00 in /  0 mm
04:55 36.9 °F /  2.7 °C 35.1 °F /  1.7 °C 30.17 in /  1021.6 hPa Calm     93 % 0.00 in /  0 mm
05:00 36.8 °F /  2.7 °C 35.0 °F /  1.7 °C 30.17 in /  1021.6 hPa Calm     93 % 0.00 in /  0 mm
05:05 36.5 °F /  2.5 °C 34.7 °F /  1.5 °C 30.17 in /  1021.6 hPa Calm     93 % 0.00 in /  0 mm
05:10 36.5 °F /  2.5 °C 34.7 °F /  1.5 °C 30.17 in /  1021.6 hPa Calm     93 % 0.00 in /  0 mm
05:15 36.5 °F /  2.5 °C 34.7 °F /  1.5 °C 30.17 in /  1021.6 hPa Calm     93 % 0.00 in /  0 mm
05:20 36.5 °F /  2.5 °C 34.7 °F /  1.5 °C 30.17 in /  1021.6 hPa Calm     93 % 0.00 in /  0 mm
05:25 36.4 °F /  2.4 °C 34.6 °F /  1.4 °C 30.17 in /  1021.6 hPa Calm     93 % 0.00 in /  0 mm
05:30 36.3 °F /  2.4 °C 34.5 °F /  1.4 °C 30.17 in /  1021.6 hPa Calm     93 % 0.00 in /  0 mm
05:35 36.3 °F /  2.4 °C 34.5 °F /  1.4 °C 30.17 in /  1021.6 hPa Calm     93 % 0.00 in /  0 mm
05:40 36.4 °F /  2.4 °C 34.8 °F /  1.6 °C 30.17 in /  1021.6 hPa Calm     94 % 0.00 in /  0 mm
05:45 36.4 °F /  2.4 °C 34.8 °F /  1.6 °C 30.17 in /  1021.6 hPa Calm     94 % 0.00 in /  0 mm
05:50 36.7 °F /  2.6 °C 35.1 °F /  1.7 °C 30.17 in /  1021.6 hPa Calm     94 % 0.00 in /  0 mm
05:55 37.6 °F /  3.1 °C 36.3 °F /  2.4 °C 30.17 in /  1021.6 hPa Calm     95 % 0.00 in /  0 mm
06:00 37.9 °F /  3.3 °C 36.6 °F /  2.6 °C 30.17 in /  1021.6 hPa Calm     95 % 0.00 in /  0 mm
06:05 38.1 °F /  3.4 °C 36.8 °F /  2.7 °C 30.17 in /  1021.6 hPa Calm     95 % 0.00 in /  0 mm
06:10 38.1 °F /  3.4 °C 36.5 °F /  2.5 °C 30.18 in /  1021.9 hPa Calm     94 % 0.00 in /  0 mm
06:16 38.3 °F /  3.5 °C 36.7 °F /  2.6 °C 30.18 in /  1021.9 hPa North 1.0 mph /  1.6 km/h 1.0 mph /  1.6 km/h 94 % 0.00 in /  0 mm
06:21 38.5 °F /  3.6 °C 36.7 °F /  2.6 °C 30.18 in /  1021.9 hPa North 1.2 mph /  1.9 km/h   93 % 0.00 in /  0 mm
06:26 38.6 °F /  3.7 °C 36.8 °F /  2.7 °C 30.18 in /  1021.9 hPa Calm     93 % 0.00 in /  0 mm
06:31 38.7 °F /  3.7 °C 36.9 °F /  2.7 °C 30.18 in /  1021.9 hPa Calm     93 % 0.00 in /  0 mm
06:36 38.6 °F /  3.7 °C 36.5 °F /  2.5 °C 30.19 in /  1022.2 hPa Calm     92 % 0.00 in /  0 mm
06:41 38.2 °F /  3.4 °C 35.8 °F /  2.1 °C 30.19 in /  1022.2 hPa Calm     91 % 0.00 in /  0 mm
06:46 37.5 °F /  3.1 °C 35.1 °F /  1.7 °C 30.19 in /  1022.2 hPa Calm     91 % 0.00 in /  0 mm
06:51 37.2 °F /  2.9 °C 34.8 °F /  1.6 °C 30.19 in /  1022.2 hPa Calm     91 % 0.00 in /  0 mm
06:56 37.3 °F /  2.9 °C 35.2 °F /  1.8 °C 30.19 in /  1022.2 hPa Calm     92 % 0.00 in /  0 mm
07:01 37.3 °F /  2.9 °C 35.2 °F /  1.8 °C 30.19 in /  1022.2 hPa Calm     92 % 0.00 in /  0 mm
07:06 37.9 °F /  3.3 °C 36.1 °F /  2.3 °C 30.19 in /  1022.2 hPa Calm     93 % 0.00 in /  0 mm
07:11 38.4 °F /  3.6 °C 36.6 °F /  2.6 °C 30.19 in /  1022.2 hPa Calm     93 % 0.00 in /  0 mm
07:16 38.7 °F /  3.7 °C 36.9 °F /  2.7 °C 30.19 in /  1022.2 hPa Calm     93 % 0.00 in /  0 mm
07:21 39.2 °F /  4 °C 37.3 °F /  2.9 °C 30.19 in /  1022.2 hPa Calm     93 % 0.00 in /  0 mm
07:26 39.6 °F /  4.2 °C 37.7 °F /  3.2 °C 30.19 in /  1022.2 hPa Calm     93 % 0.00 in /  0 mm
07:31 40.9 °F /  4.9 °C 39.3 °F /  4.1 °C 30.19 in /  1022.2 hPa Calm     94 % 0.00 in /  0 mm
07:36 43.1 °F /  6.2 °C 41.2 °F /  5.1 °C 30.19 in /  1022.2 hPa Calm     93 % 0.00 in /  0 mm
07:41 45.0 °F /  7.2 °C 42.2 °F /  5.7 °C 30.19 in /  1022.2 hPa Calm     90 % 0.00 in /  0 mm
07:46 46.4 °F /  8 °C 42.7 °F /  5.9 °C 30.19 in /  1022.2 hPa SE 1.2 mph /  1.9 km/h 1.2 mph /  1.9 km/h 87 % 0.00 in /  0 mm
07:51 47.4 °F /  8.6 °C 42.8 °F /  6 °C 30.19 in /  1022.2 hPa Calm   0.1 mph /  0.2 km/h 84 % 0.00 in /  0 mm
07:56 48.1 °F /  8.9 °C 43.2 °F /  6.2 °C 30.19 in /  1022.2 hPa South 1.2 mph /  1.9 km/h   83 % 0.00 in /  0 mm
08:01 49.0 °F /  9.4 °C 43.7 °F /  6.5 °C 30.19 in /  1022.2 hPa SSE 2.3 mph /  3.7 km/h 2.3 mph /  3.7 km/h 82 % 0.00 in /  0 mm
08:06 49.4 °F /  9.7 °C 43.5 °F /  6.4 °C 30.19 in /  1022.2 hPa ESE 2.0 mph /  3.2 km/h 2.0 mph /  3.2 km/h 80 % 0.00 in /  0 mm
08:11 49.2 °F /  9.6 °C 42.6 °F /  5.9 °C 30.20 in /  1022.6 hPa ESE 3.5 mph /  5.6 km/h 3.5 mph /  5.6 km/h 78 % 0.00 in /  0 mm
08:16 49.3 °F /  9.6 °C 43.1 °F /  6.2 °C 30.20 in /  1022.6 hPa SE 3.5 mph /  5.6 km/h 3.5 mph /  5.6 km/h 79 % 0.00 in /  0 mm
08:21 49.7 °F /  9.8 °C 43.1 °F /  6.2 °C 30.20 in /  1022.6 hPa SE 2.3 mph /  3.7 km/h 2.3 mph /  3.7 km/h 78 % 0.00 in /  0 mm
08:26 50.1 °F /  10.1 °C 43.2 °F /  6.2 °C 30.20 in /  1022.6 hPa South 3.5 mph /  5.6 km/h 3.5 mph /  5.6 km/h 77 % 0.00 in /  0 mm
08:31 50.6 °F /  10.3 °C 43.7 °F /  6.5 °C 30.19 in /  1022.2 hPa SSE 4.6 mph /  7.4 km/h 4.6 mph /  7.4 km/h 77 % 0.00 in /  0 mm
08:36 50.9 °F /  10.5 °C 43.6 °F /  6.4 °C 30.19 in /  1022.2 hPa SE 3.5 mph /  5.6 km/h 3.5 mph /  5.6 km/h 76 % 0.00 in /  0 mm
08:41 51.2 °F /  10.7 °C 43.5 °F /  6.4 °C 30.20 in /  1022.6 hPa South 4.0 mph /  6.4 km/h 4.0 mph /  6.4 km/h 75 % 0.00 in /  0 mm
08:46 51.5 °F /  10.8 °C 43.8 °F /  6.6 °C 30.20 in /  1022.6 hPa SSE 2.3 mph /  3.7 km/h 2.3 mph /  3.7 km/h 75 % 0.00 in /  0 mm
08:51 51.9 °F /  11.1 °C 43.9 °F /  6.6 °C 30.20 in /  1022.6 hPa SW 2.3 mph /  3.7 km/h 2.3 mph /  3.7 km/h 74 % 0.00 in /  0 mm
08:56 52.3 °F /  11.3 °C 43.5 °F /  6.4 °C 30.20 in /  1022.6 hPa ESE 4.6 mph /  7.4 km/h 4.6 mph /  7.4 km/h 72 % 0.00 in /  0 mm
09:01 52.4 °F /  11.3 °C 44.0 °F /  6.7 °C 30.20 in /  1022.6 hPa SSE 2.3 mph /  3.7 km/h 2.3 mph /  3.7 km/h 73 % 0.00 in /  0 mm
09:06 52.8 °F /  11.6 °C 44.4 °F /  6.9 °C 30.20 in /  1022.6 hPa SE 3.5 mph /  5.6 km/h 3.5 mph /  5.6 km/h 73 % 0.00 in /  0 mm
09:12 53.5 °F /  11.9 °C 44.7 °F /  7.1 °C 30.20 in /  1022.6 hPa South 3.5 mph /  5.6 km/h 3.5 mph /  5.6 km/h 72 % 0.00 in /  0 mm
09:17 53.8 °F /  12.1 °C 45.0 °F /  7.2 °C 30.20 in /  1022.6 hPa South 5.0 mph /  8 km/h 5.0 mph /  8 km/h 72 % 0.00 in /  0 mm
09:22 54.1 °F /  12.3 °C 44.9 °F /  7.2 °C 30.20 in /  1022.6 hPa SSE 3.5 mph /  5.6 km/h 3.5 mph /  5.6 km/h 71 % 0.00 in /  0 mm
09:27 54.7 °F /  12.6 °C 45.1 °F /  7.3 °C 30.20 in /  1022.6 hPa SE 3.5 mph /  5.6 km/h 3.5 mph /  5.6 km/h 70 % 0.00 in /  0 mm
09:32 55.1 °F /  12.8 °C 44.3 °F /  6.8 °C 30.19 in /  1022.2 hPa SSE 4.6 mph /  7.4 km/h 4.6 mph /  7.4 km/h 67 % 0.00 in /  0 mm
09:37 55.6 °F /  13.1 °C 44.8 °F /  7.1 °C 30.19 in /  1022.2 hPa East 3.5 mph /  5.6 km/h 3.5 mph /  5.6 km/h 67 % 0.00 in /  0 mm
09:42 56.3 °F /  13.5 °C 45.1 °F /  7.3 °C 30.20 in /  1022.6 hPa SE 5.0 mph /  8 km/h 5.0 mph /  8 km/h 66 % 0.00 in /  0 mm
09:47 56.7 °F /  13.7 °C 44.2 °F /  6.8 °C 30.19 in /  1022.2 hPa SE 5.8 mph /  9.3 km/h 5.8 mph /  9.3 km/h 63 % 0.00 in /  0 mm
09:52 56.8 °F /  13.8 °C 44.7 °F /  7.1 °C 30.19 in /  1022.2 hPa South 5.0 mph /  8 km/h 5.0 mph /  8 km/h 64 % 0.00 in /  0 mm
09:57 57.2 °F /  14 °C 44.7 °F /  7.1 °C 30.19 in /  1022.2 hPa East 3.0 mph /  4.8 km/h 3.0 mph /  4.8 km/h 63 % 0.00 in /  0 mm
10:02 57.7 °F /  14.3 °C 43.9 °F /  6.6 °C 30.19 in /  1022.2 hPa NE 3.5 mph /  5.6 km/h 3.5 mph /  5.6 km/h 60 % 0.00 in /  0 mm
10:07 58.0 °F /  14.4 °C 43.7 °F /  6.5 °C 30.19 in /  1022.2 hPa ESE 4.6 mph /  7.4 km/h 4.6 mph /  7.4 km/h 59 % 0.00 in /  0 mm
10:12 58.3 °F /  14.6 °C 43.6 °F /  6.4 °C 30.19 in /  1022.2 hPa SE 3.5 mph /  5.6 km/h 3.5 mph /  5.6 km/h 58 % 0.00 in /  0 mm
10:17 58.8 °F /  14.9 °C 44.0 °F /  6.7 °C 30.19 in /  1022.2 hPa SSE 3.5 mph /  5.6 km/h 3.5 mph /  5.6 km/h 58 % 0.00 in /  0 mm
10:22 59.1 °F /  15.1 °C 44.3 °F /  6.8 °C 30.19 in /  1022.2 hPa SE 3.5 mph /  5.6 km/h 3.5 mph /  5.6 km/h 58 % 0.00 in /  0 mm
10:27 59.5 °F /  15.3 °C 44.2 °F /  6.8 °C 30.19 in /  1022.2 hPa SE 1.2 mph /  1.9 km/h   57 % 0.00 in /  0 mm
10:32 60.2 °F /  15.7 °C 44.9 °F /  7.2 °C 30.19 in /  1022.2 hPa SSE 1.2 mph /  1.9 km/h 1.2 mph /  1.9 km/h 57 % 0.00 in /  0 mm
10:37 60.5 °F /  15.8 °C 44.2 °F /  6.8 °C 30.19 in /  1022.2 hPa SE 2.3 mph /  3.7 km/h 2.3 mph /  3.7 km/h 55 % 0.00 in /  0 mm
10:42 60.5 °F /  15.8 °C 44.7 °F /  7.1 °C 30.19 in /  1022.2 hPa SE 2.3 mph /  3.7 km/h 2.3 mph /  3.7 km/h 56 % 0.00 in /  0 mm
10:47 61.0 °F /  16.1 °C 44.7 °F /  7.1 °C 30.19 in /  1022.2 hPa Calm     55 % 0.00 in /  0 mm
10:52 61.4 °F /  16.3 °C 45.1 °F /  7.3 °C 30.19 in /  1022.2 hPa Calm   0.1 mph /  0.2 km/h 55 % 0.00 in /  0 mm
10:57 61.9 °F /  16.6 °C 45.5 °F /  7.5 °C 30.19 in /  1022.2 hPa ESE 3.5 mph /  5.6 km/h 3.5 mph /  5.6 km/h 55 % 0.00 in /  0 mm
11:02 62.0 °F /  16.7 °C 44.2 °F /  6.8 °C 30.19 in /  1022.2 hPa West 1.2 mph /  1.9 km/h 1.2 mph /  1.9 km/h 52 % 0.00 in /  0 mm
11:07 62.2 °F /  16.8 °C 43.8 °F /  6.6 °C 30.18 in /  1021.9 hPa NE 1.2 mph /  1.9 km/h 1.2 mph /  1.9 km/h 51 % 0.00 in /  0 mm
11:12 61.6 °F /  16.4 °C 44.3 °F /  6.8 °C 30.18 in /  1021.9 hPa South 3.0 mph /  4.8 km/h 3.0 mph /  4.8 km/h 53 % 0.00 in /  0 mm
11:17 61.8 °F /  16.6 °C 43.5 °F /  6.4 °C 30.18 in /  1021.9 hPa NW 2.3 mph /  3.7 km/h 2.3 mph /  3.7 km/h 51 % 0.00 in /  0 mm
11:22 62.1 °F /  16.7 °C 44.8 °F /  7.1 °C 30.18 in /  1021.9 hPa NE 1.2 mph /  1.9 km/h 1.2 mph /  1.9 km/h 53 % 0.00 in /  0 mm
11:27 62.7 °F /  17.1 °C 45.3 °F /  7.4 °C 30.18 in /  1021.9 hPa NW 1.2 mph /  1.9 km/h 1.2 mph /  1.9 km/h 53 % 0.00 in /  0 mm
11:32 62.8 °F /  17.1 °C 44.9 °F /  7.2 °C 30.18 in /  1021.9 hPa NW 1.2 mph /  1.9 km/h   52 % 0.00 in /  0 mm
11:37 63.8 °F /  17.7 °C 46.3 °F /  7.9 °C 30.17 in /  1021.6 hPa SE 1.2 mph /  1.9 km/h   53 % 0.00 in /  0 mm
11:42 64.0 °F /  17.8 °C 44.4 °F /  6.9 °C 30.17 in /  1021.6 hPa NW 2.3 mph /  3.7 km/h 2.3 mph /  3.7 km/h 49 % 0.00 in /  0 mm
11:47 63.6 °F /  17.6 °C 44.1 °F /  6.7 °C 30.16 in /  1021.2 hPa West 2.0 mph /  3.2 km/h 2.0 mph /  3.2 km/h 49 % 0.00 in /  0 mm
11:52 63.4 °F /  17.4 °C 43.9 °F /  6.6 °C 30.16 in /  1021.2 hPa WNW 3.0 mph /  4.8 km/h 3.0 mph /  4.8 km/h 49 % 0.00 in /  0 mm
11:57 63.1 °F /  17.3 °C 43.6 °F /  6.4 °C 30.16 in /  1021.2 hPa WNW 1.2 mph /  1.9 km/h 1.2 mph /  1.9 km/h 49 % 0.00 in /  0 mm
12:02 63.5 °F /  17.5 °C 43.4 °F /  6.3 °C 30.15 in /  1020.9 hPa NW 2.3 mph /  3.7 km/h 2.3 mph /  3.7 km/h 48 % 0.00 in /  0 mm
12:07 63.6 °F /  17.6 °C 43.5 °F /  6.4 °C 30.15 in /  1020.9 hPa NW 2.3 mph /  3.7 km/h 2.3 mph /  3.7 km/h 48 % 0.00 in /  0 mm
12:12 63.7 °F /  17.6 °C 44.2 °F /  6.8 °C 30.14 in /  1020.5 hPa WNW 2.3 mph /  3.7 km/h 2.3 mph /  3.7 km/h 49 % 0.00 in /  0 mm
12:17 64.1 °F /  17.8 °C 44.5 °F /  6.9 °C 30.14 in /  1020.5 hPa WNW 2.3 mph /  3.7 km/h 2.3 mph /  3.7 km/h 49 % 0.00 in /  0 mm
12:22 64.2 °F /  17.9 °C 43.5 °F /  6.4 °C 30.14 in /  1020.5 hPa NW 2.0 mph /  3.2 km/h 2.0 mph /  3.2 km/h 47 % 0.00 in /  0 mm
12:27 64.6 °F /  18.1 °C 43.9 °F /  6.6 °C 30.14 in /  1020.5 hPa WNW 3.5 mph /  5.6 km/h 3.5 mph /  5.6 km/h 47 % 0.00 in /  0 mm
12:32 65.0 °F /  18.3 °C 44.8 °F /  7.1 °C 30.14 in /  1020.5 hPa NW 2.0 mph /  3.2 km/h 2.0 mph /  3.2 km/h 48 % 0.00 in /  0 mm
12:37 65.2 °F /  18.4 °C 44.5 °F /  6.9 °C 30.13 in /  1020.2 hPa West 2.3 mph /  3.7 km/h 2.3 mph /  3.7 km/h 47 % 0.00 in /  0 mm
12:42 65.0 °F /  18.3 °C 43.7 °F /  6.5 °C 30.13 in /  1020.2 hPa NW 3.5 mph /  5.6 km/h 3.5 mph /  5.6 km/h 46 % 0.00 in /  0 mm
12:47 65.3 °F /  18.5 °C 43.4 °F /  6.3 °C 30.12 in /  1019.9 hPa NW 3.5 mph /  5.6 km/h 3.5 mph /  5.6 km/h 45 % 0.00 in /  0 mm
12:52 65.3 °F /  18.5 °C 42.2 °F /  5.7 °C 30.12 in /  1019.9 hPa NW 1.2 mph /  1.9 km/h 1.2 mph /  1.9 km/h 43 % 0.00 in /  0 mm
12:57 65.6 °F /  18.7 °C 43.1 °F /  6.2 °C 30.12 in /  1019.9 hPa WSW 2.3 mph /  3.7 km/h 2.3 mph /  3.7 km/h 44 % 0.00 in /  0 mm
13:04 66.1 °F /  18.9 °C 43.5 °F /  6.4 °C 30.12 in /  1019.9 hPa North 3.5 mph /  5.6 km/h 3.5 mph /  5.6 km/h 44 % 0.00 in /  0 mm
13:07 66.2 °F /  19 °C 41.8 °F /  5.4 °C 30.12 in /  1019.9 hPa NW 3.5 mph /  5.6 km/h 3.5 mph /  5.6 km/h 41 % 0.00 in /  0 mm
13:13 66.1 °F /  18.9 °C 39.1 °F /  3.9 °C 30.11 in /  1019.5 hPa NW 3.5 mph /  5.6 km/h 3.5 mph /  5.6 km/h 37 % 0.00 in /  0 mm
13:18 66.0 °F /  18.9 °C 40.3 °F /  4.6 °C 30.11 in /  1019.5 hPa NNW 3.5 mph /  5.6 km/h 3.5 mph /  5.6 km/h 39 % 0.00 in /  0 mm
13:23 66.4 °F /  19.1 °C 42.0 °F /  5.6 °C 30.11 in /  1019.5 hPa NNE 2.3 mph /  3.7 km/h 2.3 mph /  3.7 km/h 41 % 0.00 in /  0 mm
13:28 66.9 °F /  19.4 °C 43.0 °F /  6.1 °C 30.11 in /  1019.5 hPa NW 4.6 mph /  7.4 km/h 4.6 mph /  7.4 km/h 42 % 0.00 in /  0 mm
13:33 66.6 °F /  19.2 °C 42.8 °F /  6 °C 30.10 in /  1019.2 hPa SE 3.5 mph /  5.6 km/h 3.5 mph /  5.6 km/h 42 % 0.00 in /  0 mm
13:36 66.7 °F /  19.3 °C 42.9 °F /  6.1 °C 30.10 in /  1019.2 hPa NW 3.5 mph /  5.6 km/h 3.5 mph /  5.6 km/h 42 % 0.00 in /  0 mm
13:41 67.0 °F /  19.4 °C 43.1 °F /  6.2 °C 30.09 in /  1018.8 hPa SW 2.3 mph /  3.7 km/h 2.3 mph /  3.7 km/h 42 % 0.00 in /  0 mm
13:46 67.2 °F /  19.6 °C 43.3 °F /  6.3 °C 30.09 in /  1018.8 hPa NNW 3.5 mph /  5.6 km/h 3.5 mph /  5.6 km/h 42 % 0.00 in /  0 mm
13:50 67.2 °F /  19.6 °C 44.5 °F /  6.9 °C 30.09 in /  1018.8 hPa NNW 3.5 mph /  5.6 km/h 3.5 mph /  5.6 km/h 44 % 0.00 in /  0 mm
13:55 67.4 °F /  19.7 °C 42.2 °F /  5.7 °C 30.08 in /  1018.5 hPa NW 1.2 mph /  1.9 km/h 1.2 mph /  1.9 km/h 40 % 0.00 in /  0 mm
14:00 67.4 °F /  19.7 °C 41.6 °F /  5.3 °C 30.08 in /  1018.5 hPa WNW 4.0 mph /  6.4 km/h 4.0 mph /  6.4 km/h 39 % 0.00 in /  0 mm
14:05 67.7 °F /  19.8 °C 40.5 °F /  4.7 °C 30.08 in /  1018.5 hPa NNE 3.5 mph /  5.6 km/h 3.5 mph /  5.6 km/h 37 % 0.00 in /  0 mm
14:10 68.1 °F /  20.1 °C 40.8 °F /  4.9 °C 30.08 in /  1018.5 hPa West 1.2 mph /  1.9 km/h 1.2 mph /  1.9 km/h 37 % 0.00 in /  0 mm
14:15 68.2 °F /  20.1 °C 40.2 °F /  4.6 °C 30.08 in /  1018.5 hPa WNW 3.5 mph /  5.6 km/h 3.5 mph /  5.6 km/h 36 % 0.00 in /  0 mm
14:16 68.2 °F /  20.1 °C 40.2 °F /  4.6 °C 30.08 in /  1018.5 hPa NW 3.5 mph /  5.6 km/h 3.5 mph /  5.6 km/h 36 % 0.00 in /  0 mm
14:21 68.4 °F /  20.2 °C 40.4 °F /  4.7 °C 30.08 in /  1018.5 hPa NW 1.2 mph /  1.9 km/h 2.0 mph /  3.2 km/h 36 % 0.00 in /  0 mm
14:26 68.6 °F /  20.3 °C 41.3 °F /  5.2 °C 30.07 in /  1018.2 hPa WNW 3.5 mph /  5.6 km/h 3.5 mph /  5.6 km/h 37 % 0.00 in /  0 mm
14:28 68.6 °F /  20.3 °C 39.8 °F /  4.3 °C 30.07 in /  1018.2 hPa WNW 3.5 mph /  5.6 km/h 3.5 mph /  5.6 km/h 35 % 0.00 in /  0 mm
14:33 68.6 °F /  20.3 °C 39.1 °F /  3.9 °C 30.07 in /  1018.2 hPa North 3.0 mph /  4.8 km/h 3.0 mph /  4.8 km/h 34 % 0.00 in /  0 mm
14:38 69.0 °F /  20.6 °C 39.4 °F /  4.1 °C 30.07 in /  1018.2 hPa WNW 5.8 mph /  9.3 km/h 5.8 mph /  9.3 km/h 34 % 0.00 in /  0 mm
14:43 68.8 °F /  20.4 °C 39.3 °F /  4.1 °C 30.07 in /  1018.2 hPa NW 3.5 mph /  5.6 km/h 3.5 mph /  5.6 km/h 34 % 0.00 in /  0 mm
14:47 68.7 °F /  20.4 °C 39.2 °F /  4 °C 30.07 in /  1018.2 hPa NW 2.0 mph /  3.2 km/h 2.0 mph /  3.2 km/h 34 % 0.00 in /  0 mm
14:48 68.8 °F /  20.4 °C 40.0 °F /  4.4 °C 30.07 in /  1018.2 hPa NW 2.3 mph /  3.7 km/h 2.3 mph /  3.7 km/h 35 % 0.00 in /  0 mm
14:53 69.1 °F /  20.6 °C 38.8 °F /  3.8 °C 30.07 in /  1018.2 hPa NW 4.0 mph /  6.4 km/h 4.0 mph /  6.4 km/h 33 % 0.00 in /  0 mm
14:58 68.9 °F /  20.5 °C 38.6 °F /  3.7 °C 30.07 in /  1018.2 hPa WNW 5.8 mph /  9.3 km/h 5.8 mph /  9.3 km/h 33 % 0.00 in /  0 mm
15:03 68.6 °F /  20.3 °C 38.3 °F /  3.5 °C 30.06 in /  1017.8 hPa NW 2.0 mph /  3.2 km/h 2.0 mph /  3.2 km/h 33 % 0.00 in /  0 mm
15:08 68.8 °F /  20.4 °C 40.7 °F /  4.8 °C 30.06 in /  1017.8 hPa WNW 3.5 mph /  5.6 km/h 3.5 mph /  5.6 km/h 36 % 0.00 in /  0 mm
15:13 68.8 °F /  20.4 °C 38.5 °F /  3.6 °C 30.06 in /  1017.8 hPa NW 3.5 mph /  5.6 km/h 3.5 mph /  5.6 km/h 33 % 0.00 in /  0 mm
15:18 68.8 °F /  20.4 °C 39.3 °F /  4.1 °C 30.06 in /  1017.8 hPa NNW 3.5 mph /  5.6 km/h 3.5 mph /  5.6 km/h 34 % 0.00 in /  0 mm
15:23 68.7 °F /  20.4 °C 38.4 °F /  3.6 °C 30.06 in /  1017.8 hPa NW 1.2 mph /  1.9 km/h 2.0 mph /  3.2 km/h 33 % 0.00 in /  0 mm
15:29 68.5 °F /  20.3 °C 38.2 °F /  3.4 °C 30.06 in /  1017.8 hPa NW 3.5 mph /  5.6 km/h   33 % 0.00 in /  0 mm
15:34 68.3 °F /  20.2 °C 39.6 °F /  4.2 °C 30.06 in /  1017.8 hPa NW 3.5 mph /  5.6 km/h 3.5 mph /  5.6 km/h 35 % 0.00 in /  0 mm
15:39 68.2 °F /  20.1 °C 40.9 °F /  4.9 °C 30.06 in /  1017.8 hPa NW 3.5 mph /  5.6 km/h 3.5 mph /  5.6 km/h 37 % 0.00 in /  0 mm
15:44 68.3 °F /  20.2 °C 39.6 °F /  4.2 °C 30.06 in /  1017.8 hPa NW 3.5 mph /  5.6 km/h 3.5 mph /  5.6 km/h 35 % 0.00 in /  0 mm
15:49 68.3 °F /  20.2 °C 38.8 °F /  3.8 °C 30.06 in /  1017.8 hPa WNW 2.3 mph /  3.7 km/h 2.3 mph /  3.7 km/h 34 % 0.00 in /  0 mm
15:54 68.2 °F /  20.1 °C 37.2 °F /  2.9 °C 30.06 in /  1017.8 hPa NW 3.5 mph /  5.6 km/h 3.5 mph /  5.6 km/h 32 % 0.00 in /  0 mm
15:59 68.1 °F /  20.1 °C 36.3 °F /  2.4 °C 30.06 in /  1017.8 hPa WNW 2.3 mph /  3.7 km/h 2.3 mph /  3.7 km/h 31 % 0.00 in /  0 mm
16:04 68.0 °F /  20 °C 37.0 °F /  2.8 °C 30.06 in /  1017.8 hPa NW 3.5 mph /  5.6 km/h 3.5 mph /  5.6 km/h 32 % 0.00 in /  0 mm
16:09 67.9 °F /  19.9 °C 35.3 °F /  1.8 °C 30.05 in /  1017.5 hPa WNW 2.3 mph /  3.7 km/h 2.3 mph /  3.7 km/h 30 % 0.00 in /  0 mm
16:14 67.9 °F /  19.9 °C 36.1 °F /  2.3 °C 30.05 in /  1017.5 hPa NW 2.3 mph /  3.7 km/h 2.3 mph /  3.7 km/h 31 % 0.00 in /  0 mm
16:19 67.7 °F /  19.8 °C 35.1 °F /  1.7 °C 30.05 in /  1017.5 hPa NW 2.3 mph /  3.7 km/h 2.3 mph /  3.7 km/h 30 % 0.00 in /  0 mm
16:24 67.5 °F /  19.7 °C 36.6 °F /  2.6 °C 30.05 in /  1017.5 hPa NNE 3.5 mph /  5.6 km/h 3.5 mph /  5.6 km/h 32 % 0.00 in /  0 mm
16:29 67.4 °F /  19.7 °C 38.0 °F /  3.3 °C 30.05 in /  1017.5 hPa WNW 3.5 mph /  5.6 km/h 3.5 mph /  5.6 km/h 34 % 0.00 in /  0 mm
16:34 67.2 °F /  19.6 °C 37.9 °F /  3.3 °C 30.05 in /  1017.5 hPa NW 2.3 mph /  3.7 km/h 2.3 mph /  3.7 km/h 34 % 0.00 in /  0 mm
16:39 67.1 °F /  19.5 °C 38.5 °F /  3.6 °C 30.05 in /  1017.5 hPa NNW 2.3 mph /  3.7 km/h 2.3 mph /  3.7 km/h 35 % 0.00 in /  0 mm
16:44 67.2 °F /  19.6 °C 40.0 °F /  4.4 °C 30.05 in /  1017.5 hPa WNW 3.5 mph /  5.6 km/h 3.5 mph /  5.6 km/h 37 % 0.00 in /  0 mm
16:49 66.9 °F /  19.4 °C 38.3 °F /  3.5 °C 30.05 in /  1017.5 hPa NNW 1.2 mph /  1.9 km/h 1.2 mph /  1.9 km/h 35 % 0.00 in /  0 mm
16:54 66.7 °F /  19.3 °C 39.6 °F /  4.2 °C 30.06 in /  1017.8 hPa NW 1.2 mph /  1.9 km/h 1.2 mph /  1.9 km/h 37 % 0.00 in /  0 mm
16:59 66.5 °F /  19.2 °C 38.7 °F /  3.7 °C 30.05 in /  1017.5 hPa Calm     36 % 0.00 in /  0 mm
17:04 66.3 °F /  19.1 °C 39.2 °F /  4 °C 30.05 in /  1017.5 hPa NNW 1.2 mph /  1.9 km/h 1.2 mph /  1.9 km/h 37 % 0.00 in /  0 mm
17:09 66.2 °F /  19 °C 40.5 °F /  4.7 °C 30.05 in /  1017.5 hPa NW 3.5 mph /  5.6 km/h 3.5 mph /  5.6 km/h 39 % 0.00 in /  0 mm
17:14 65.9 °F /  18.8 °C 40.9 °F /  4.9 °C 30.05 in /  1017.5 hPa NW 1.2 mph /  1.9 km/h 1.2 mph /  1.9 km/h 40 % 0.00 in /  0 mm
17:19 65.7 °F /  18.7 °C 42.0 °F /  5.6 °C 30.05 in /  1017.5 hPa Calm     42 % 0.00 in /  0 mm
17:24 65.4 °F /  18.6 °C 42.3 °F /  5.7 °C 30.05 in /  1017.5 hPa Calm     43 % 0.00 in /  0 mm
17:29 65.1 °F /  18.4 °C 42.6 °F /  5.9 °C 30.05 in /  1017.5 hPa NW 1.2 mph /  1.9 km/h 1.2 mph /  1.9 km/h 44 % 0.00 in /  0 mm
17:34 65.0 °F /  18.3 °C 43.1 °F /  6.2 °C 30.05 in /  1017.5 hPa Calm     45 % 0.00 in /  0 mm
17:39 64.7 °F /  18.2 °C 42.9 °F /  6.1 °C 30.04 in /  1017.2 hPa Calm     45 % 0.00 in /  0 mm
17:44 64.4 °F /  18 °C 42.6 °F /  5.9 °C 30.04 in /  1017.2 hPa NW 1.2 mph /  1.9 km/h 1.2 mph /  1.9 km/h 45 % 0.00 in /  0 mm
17:49 64.0 °F /  17.8 °C 42.8 °F /  6 °C 30.05 in /  1017.5 hPa Calm     46 % 0.00 in /  0 mm
17:54 63.5 °F /  17.5 °C 42.9 °F /  6.1 °C 30.04 in /  1017.2 hPa NW 1.2 mph /  1.9 km/h   47 % 0.00 in /  0 mm
17:59 63.0 °F /  17.2 °C 44.1 °F /  6.7 °C 30.04 in /  1017.2 hPa Calm     50 % 0.00 in /  0 mm
18:04 62.4 °F /  16.9 °C 43.0 °F /  6.1 °C 30.04 in /  1017.2 hPa Calm     49 % 0.00 in /  0 mm
18:09 61.9 °F /  16.6 °C 44.1 °F /  6.7 °C 30.04 in /  1017.2 hPa Calm     52 % 0.00 in /  0 mm
18:14 61.0 °F /  16.1 °C 44.7 °F /  7.1 °C 30.04 in /  1017.2 hPa Calm     55 % 0.00 in /  0 mm
18:19 60.1 °F /  15.6 °C 44.3 °F /  6.8 °C 30.04 in /  1017.2 hPa Calm     56 % 0.00 in /  0 mm
18:24 59.4 °F /  15.2 °C 44.6 °F /  7 °C 30.04 in /  1017.2 hPa Calm     58 % 0.00 in /  0 mm
18:29 58.7 °F /  14.8 °C 44.8 °F /  7.1 °C 30.04 in /  1017.2 hPa Calm     60 % 0.00 in /  0 mm
18:34 58.0 °F /  14.4 °C 44.6 °F /  7 °C 30.05 in /  1017.5 hPa Calm     61 % 0.00 in /  0 mm
18:39 57.5 °F /  14.2 °C 44.6 °F /  7 °C 30.05 in /  1017.5 hPa Calm     62 % 0.00 in /  0 mm
18:44 56.9 °F /  13.8 °C 44.0 °F /  6.7 °C 30.05 in /  1017.5 hPa Calm     62 % 0.00 in /  0 mm
18:49 56.3 °F /  13.5 °C 44.3 °F /  6.8 °C 30.05 in /  1017.5 hPa Calm     64 % 0.00 in /  0 mm
18:54 55.7 °F /  13.2 °C 44.5 °F /  6.9 °C 30.06 in /  1017.8 hPa Calm     66 % 0.00 in /  0 mm
18:59 55.0 °F /  12.8 °C 44.2 °F /  6.8 °C 30.06 in /  1017.8 hPa Calm     67 % 0.00 in /  0 mm
19:04 54.5 °F /  12.5 °C 44.9 °F /  7.2 °C 30.06 in /  1017.8 hPa Calm     70 % 0.00 in /  0 mm
19:09 54.0 °F /  12.2 °C 44.8 °F /  7.1 °C 30.07 in /  1018.2 hPa Calm     71 % 0.00 in /  0 mm
19:14 53.7 °F /  12.1 °C 44.5 °F /  6.9 °C 30.07 in /  1018.2 hPa Calm     71 % 0.00 in /  0 mm
19:19 53.6 °F /  12 °C 44.4 °F /  6.9 °C 30.07 in /  1018.2 hPa Calm     71 % 0.00 in /  0 mm
19:24 53.7 °F /  12.1 °C 44.1 °F /  6.7 °C 30.08 in /  1018.5 hPa Calm     70 % 0.00 in /  0 mm
19:29 53.7 °F /  12.1 °C 44.1 °F /  6.7 °C 30.08 in /  1018.5 hPa Calm     70 % 0.00 in /  0 mm
19:34 53.6 °F /  12 °C 44.0 °F /  6.7 °C 30.08 in /  1018.5 hPa Calm     70 % 0.00 in /  0 mm
19:39 53.6 °F /  12 °C 44.0 °F /  6.7 °C 30.09 in /  1018.8 hPa Calm     70 % 0.00 in /  0 mm
19:44 53.6 °F /  12 °C 44.0 °F /  6.7 °C 30.09 in /  1018.8 hPa Calm     70 % 0.00 in /  0 mm
19:49 53.3 °F /  11.8 °C 43.8 °F /  6.6 °C 30.09 in /  1018.8 hPa Calm     70 % 0.00 in /  0 mm
19:54 53.2 °F /  11.8 °C 43.7 °F /  6.5 °C 30.09 in /  1018.8 hPa Calm     70 % 0.00 in /  0 mm
19:59 53.4 °F /  11.9 °C 43.9 °F /  6.6 °C 30.09 in /  1018.8 hPa Calm     70 % 0.00 in /  0 mm
20:04 53.7 °F /  12.1 °C 43.8 °F /  6.6 °C 30.09 in /  1018.8 hPa Calm     69 % 0.00 in /  0 mm
20:09 54.0 °F /  12.2 °C 43.7 °F /  6.5 °C 30.09 in /  1018.8 hPa Calm     68 % 0.00 in /  0 mm
20:14 53.8 °F /  12.1 °C 43.5 °F /  6.4 °C 30.09 in /  1018.8 hPa Calm     68 % 0.00 in /  0 mm
20:19 53.4 °F /  11.9 °C 43.5 °F /  6.4 °C 30.09 in /  1018.8 hPa Calm     69 % 0.00 in /  0 mm
20:24 52.9 °F /  11.6 °C 43.4 °F /  6.3 °C 30.09 in /  1018.8 hPa Calm     70 % 0.00 in /  0 mm
20:29 52.7 °F /  11.5 °C 43.2 °F /  6.2 °C 30.09 in /  1018.8 hPa Calm     70 % 0.00 in /  0 mm
20:34 52.4 °F /  11.3 °C 42.9 °F /  6.1 °C 30.09 in /  1018.8 hPa Calm     70 % 0.00 in /  0 mm
20:39 51.9 °F /  11.1 °C 43.5 °F /  6.4 °C 30.09 in /  1018.8 hPa Calm     73 % 0.00 in /  0 mm
20:44 51.7 °F /  10.9 °C 43.7 °F /  6.5 °C 30.08 in /  1018.5 hPa Calm     74 % 0.00 in /  0 mm
20:49 51.6 °F /  10.9 °C 43.6 °F /  6.4 °C 30.08 in /  1018.5 hPa Calm     74 % 0.00 in /  0 mm
20:54 51.0 °F /  10.6 °C 43.4 °F /  6.3 °C 30.08 in /  1018.5 hPa Calm     75 % 0.00 in /  0 mm
20:59 50.5 °F /  10.3 °C 43.2 °F /  6.2 °C 30.07 in /  1018.2 hPa Calm     76 % 0.00 in /  0 mm
21:04 49.9 °F /  9.9 °C 43.3 °F /  6.3 °C 30.07 in /  1018.2 hPa Calm     78 % 0.00 in /  0 mm
21:09 49.9 °F /  9.9 °C 43.3 °F /  6.3 °C 30.06 in /  1017.8 hPa Calm     78 % 0.00 in /  0 mm
21:14 50.3 °F /  10.2 °C 43.7 °F /  6.5 °C 30.06 in /  1017.8 hPa Calm     78 % 0.00 in /  0 mm
21:19 50.4 °F /  10.2 °C 43.8 °F /  6.6 °C 30.06 in /  1017.8 hPa Calm     78 % 0.00 in /  0 mm
21:24 50.5 °F /  10.3 °C 43.2 °F /  6.2 °C 30.05 in /  1017.5 hPa NNE 1.2 mph /  1.9 km/h   76 % 0.00 in /  0 mm
21:29 50.9 °F /  10.5 °C 43.3 °F /  6.3 °C 30.05 in /  1017.5 hPa Calm     75 % 0.00 in /  0 mm
21:35 50.8 °F /  10.4 °C 43.5 °F /  6.4 °C 30.05 in /  1017.5 hPa Calm     76 % 0.00 in /  0 mm
21:40 50.1 °F /  10.1 °C 43.2 °F /  6.2 °C 30.04 in /  1017.2 hPa Calm     77 % 0.00 in /  0 mm
21:45 49.7 °F /  9.8 °C 43.1 °F /  6.2 °C 30.04 in /  1017.2 hPa Calm     78 % 0.00 in /  0 mm
21:50 50.1 °F /  10.1 °C 43.2 °F /  6.2 °C 30.04 in /  1017.2 hPa Calm     77 % 0.00 in /  0 mm
21:55 50.0 °F /  10 °C 43.1 °F /  6.2 °C 30.04 in /  1017.2 hPa Calm     77 % 0.00 in /  0 mm
22:00 50.0 °F /  10 °C 43.1 °F /  6.2 °C 30.04 in /  1017.2 hPa NNW 1.2 mph /  1.9 km/h   77 % 0.00 in /  0 mm
22:05 50.5 °F /  10.3 °C 43.2 °F /  6.2 °C 30.04 in /  1017.2 hPa Calm     76 % 0.00 in /  0 mm
22:10 51.2 °F /  10.7 °C 43.2 °F /  6.2 °C 30.04 in /  1017.2 hPa Calm     74 % 0.00 in /  0 mm
22:15 51.4 °F /  10.8 °C 43.0 °F /  6.1 °C 30.04 in /  1017.2 hPa Calm     73 % 0.00 in /  0 mm
22:20 51.4 °F /  10.8 °C 43.0 °F /  6.1 °C 30.04 in /  1017.2 hPa Calm     73 % 0.00 in /  0 mm
22:25 51.2 °F /  10.7 °C 42.8 °F /  6 °C 30.04 in /  1017.2 hPa NNW 1.2 mph /  1.9 km/h   73 % 0.00 in /  0 mm
22:30 51.3 °F /  10.7 °C 42.6 °F /  5.9 °C 30.04 in /  1017.2 hPa Calm     72 % 0.00 in /  0 mm
22:35 51.5 °F /  10.8 °C 42.8 °F /  6 °C 30.04 in /  1017.2 hPa Calm     72 % 0.00 in /  0 mm
22:40 51.4 °F /  10.8 °C 43.0 °F /  6.1 °C 30.04 in /  1017.2 hPa Calm     73 % 0.00 in /  0 mm
22:45 50.2 °F /  10.1 °C 42.6 °F /  5.9 °C 30.04 in /  1017.2 hPa Calm     75 % 0.00 in /  0 mm
22:50 49.3 °F /  9.6 °C 42.4 °F /  5.8 °C 30.04 in /  1017.2 hPa Calm     77 % 0.00 in /  0 mm
22:55 48.6 °F /  9.2 °C 42.0 °F /  5.6 °C 30.04 in /  1017.2 hPa Calm     78 % 0.00 in /  0 mm
23:00 48.2 °F /  9 °C 42.3 °F /  5.7 °C 30.04 in /  1017.2 hPa Calm     80 % 0.00 in /  0 mm
23:05 47.9 °F /  8.8 °C 42.3 °F /  5.7 °C 30.04 in /  1017.2 hPa Calm     81 % 0.00 in /  0 mm
23:10 47.6 °F /  8.7 °C 42.1 °F /  5.6 °C 30.05 in /  1017.5 hPa Calm     81 % 0.00 in /  0 mm
23:15 47.3 °F /  8.5 °C 42.1 °F /  5.6 °C 30.05 in /  1017.5 hPa Calm     82 % 0.00 in /  0 mm
23:20 46.9 °F /  8.3 °C 42.0 °F /  5.6 °C 30.05 in /  1017.5 hPa Calm     83 % 0.00 in /  0 mm
23:25 46.8 °F /  8.2 °C 41.9 °F /  5.5 °C 30.06 in /  1017.8 hPa Calm     83 % 0.00 in /  0 mm
23:30 46.6 °F /  8.1 °C 41.7 °F /  5.4 °C 30.07 in /  1018.2 hPa Calm     83 % 0.00 in /  0 mm
23:35 46.3 °F /  7.9 °C 41.4 °F /  5.2 °C 30.07 in /  1018.2 hPa Calm     83 % 0.00 in /  0 mm
23:40 45.7 °F /  7.6 °C 41.1 °F /  5.1 °C 30.07 in /  1018.2 hPa Calm     84 % 0.00 in /  0 mm
23:45 45.6 °F /  7.6 °C 41.4 °F /  5.2 °C 30.07 in /  1018.2 hPa Calm     85 % 0.00 in /  0 mm
23:50 45.7 °F /  7.6 °C 41.8 °F /  5.4 °C 30.07 in /  1018.2 hPa Calm     86 % 0.00 in /  0 mm
23:55 46.0 °F /  7.8 °C 42.0 °F /  5.6 °C 30.07 in /  1018.2 hPa Calm     86 % 0.00 in /  0 mm
Park Place, Exeter, Tulare County, California, USA
Compliments of Weather Underground - 2.75 mb